Time;durP1;ratioP1;P1;durP2;ratioP2;P2;SDS_P1;SDS_P2;PMS_P1;PMS_P2;Temp;Humidity;BMP_temperature;BMP_pressure;BME280_temperature;BME280_humidity;BME280_pressure;Samples;Min_cycle;Max_cycle;Signal;HPM_P1;HPM_P2
2023/09/15 00:00:44;;;;;;;2.83;1.90;;;24.90;45.00;;;;;;5050576;28;20095;-66
2023/09/15 00:03:11;;;;;;;3.30;1.38;;;24.90;45.00;;;;;;5051609;28;20040;-65
2023/09/15 00:05:37;;;;;;;2.60;1.40;;;24.90;45.00;;;;;;5035182;28;20044;-65
2023/09/15 00:08:04;;;;;;;3.65;1.75;;;24.90;45.00;;;;;;5030657;28;20029;-66
2023/09/15 00:10:31;;;;;;;2.25;1.50;;;24.80;44.90;;;;;;5031701;28;20025;-66
2023/09/15 00:12:58;;;;;;;2.55;1.67;;;24.80;44.90;;;;;;5029824;28;20449;-65
2023/09/15 00:15:24;;;;;;;1.92;1.27;;;24.80;44.90;;;;;;5031365;28;20104;-66
2023/09/15 00:17:50;;;;;;;2.00;1.50;;;24.90;44.90;;;;;;5028592;28;20171;-65
2023/09/15 00:20:16;;;;;;;2.58;1.50;;;24.80;45.40;;;;;;5049634;28;20028;-65
2023/09/15 00:22:51;;;;;;;2.97;1.65;;;24.80;44.90;;;;;;5033308;28;20478;-66
2023/09/15 00:25:28;;;;;;;3.70;1.92;;;24.80;44.80;;;;;;5033381;28;20112;-65
2023/09/15 00:27:56;;;;;;;2.13;1.50;;;24.80;44.80;;;;;;5051488;28;20029;-65
2023/09/15 00:30:24;;;;;;;1.80;1.50;;;24.80;44.80;;;;;;5033629;28;20033;-66
2023/09/15 00:32:51;;;;;;;2.15;1.52;;;24.80;44.80;;;;;;5031977;28;20037;-66
2023/09/15 00:35:20;;;;;;;2.63;1.40;;;24.80;44.80;;;;;;5039563;28;20029;-66
2023/09/15 00:37:47;;;;;;;2.85;1.50;;;24.80;44.80;;;;;;5050865;28;20395;-66
2023/09/15 00:40:14;;;;;;;3.03;1.80;;;24.80;44.80;;;;;;5035989;28;20119;-66
2023/09/15 00:42:45;;;;;;;1.65;1.25;;;24.80;44.80;;;;;;5037051;28;20069;-65
2023/09/15 00:45:15;;;;;;;3.60;1.67;;;24.80;44.80;;;;;;5037245;28;20040;-66
2023/09/15 00:47:49;;;;;;;2.05;1.50;;;24.70;44.70;;;;;;5031562;28;20457;-66
2023/09/15 00:50:17;;;;;;;2.58;1.42;;;24.70;44.70;;;;;;5045854;28;20029;-65
2023/09/15 00:52:50;;;;;;;2.33;1.20;;;24.70;44.80;;;;;;5014374;28;20179;-67
2023/09/15 00:55:29;;;;;;;1.92;1.45;;;24.70;44.70;;;;;;5029773;28;20052;-65
2023/09/15 00:57:56;;;;;;;2.38;1.50;;;24.70;44.80;;;;;;5013604;28;20030;-66
2023/09/15 01:00:23;;;;;;;1.80;1.27;;;24.70;44.80;;;;;;5013466;28;20041;-65
2023/09/15 01:02:50;;;;;;;2.13;1.55;;;24.70;44.80;;;;;;4999175;28;20045;-65
2023/09/15 01:05:23;;;;;;;2.30;1.63;;;24.70;44.70;;;;;;5008491;28;20136;-66
2023/09/15 01:07:52;;;;;;;2.60;1.50;;;24.70;44.70;;;;;;5014484;28;20049;-66
2023/09/15 01:10:23;;;;;;;1.77;1.30;;;24.70;44.70;;;;;;4977440;28;20061;-66
2023/09/15 01:12:50;;;;;;;2.63;1.70;;;24.70;44.90;;;;;;5011712;28;20038;-66
2023/09/15 01:15:17;;;;;;;2.92;1.48;;;24.70;44.70;;;;;;5014668;28;20033;-65
2023/09/15 01:18:13;;;;;;;2.78;1.50;;;24.70;44.70;;;;;;5010727;28;20349;-65
2023/09/15 01:21:11;;;;;;;1.70;1.20;;;24.70;44.70;;;;;;4995135;28;20060;-67
2023/09/15 01:24:07;;;;;;;2.28;1.50;;;24.70;44.70;;;;;;5032532;28;20428;-65
2023/09/15 01:26:36;;;;;;;1.73;1.38;;;24.60;44.70;;;;;;5034087;28;20112;-64
2023/09/15 01:29:44;;;;;;;3.75;1.63;;;24.60;44.70;;;;;;5032705;28;20416;-65
2023/09/15 01:32:12;;;;;;;3.72;1.60;;;24.60;44.70;;;;;;5020979;28;20506;-64
2023/09/15 01:34:44;;;;;;;2.72;1.80;;;24.60;44.70;;;;;;5029521;28;20037;-65
2023/09/15 01:37:10;;;;;;;3.20;1.45;;;24.60;44.70;;;;;;5014484;28;20337;-65
2023/09/15 01:39:36;;;;;;;2.33;1.48;;;24.60;44.70;;;;;;5013648;28;20033;-67
2023/09/15 01:42:02;;;;;;;3.22;1.70;;;24.60;44.70;;;;;;5014282;28;20064;-66
2023/09/15 01:44:28;;;;;;;2.30;1.60;;;24.60;44.70;;;;;;5014054;28;20132;-66
2023/09/15 01:46:54;;;;;;;2.30;1.40;;;24.60;44.70;;;;;;5022030;28;20108;-66
2023/09/15 01:49:21;;;;;;;3.72;1.80;;;24.60;44.70;;;;;;5024178;28;20045;-65
2023/09/15 01:51:48;;;;;;;2.45;1.60;;;24.60;44.70;;;;;;5032449;28;20025;-66
2023/09/15 01:54:18;;;;;;;2.03;1.45;;;24.60;44.70;;;;;;5015728;28;20517;-64
2023/09/15 01:56:45;;;;;;;3.78;1.70;;;24.60;44.70;;;;;;5033323;28;20033;-65
2023/09/15 01:59:12;;;;;;;2.67;1.70;;;24.60;44.70;;;;;;5015225;28;20386;-65
2023/09/15 02:01:38;;;;;;;1.95;1.40;;;24.60;44.70;;;;;;5014414;28;20033;-66
2023/09/15 02:04:04;;;;;;;2.33;1.60;;;24.60;44.70;;;;;;5031163;28;20448;-65
2023/09/15 02:06:30;;;;;;;1.63;1.10;;;24.60;44.60;;;;;;5030935;28;20052;-66
2023/09/15 02:08:57;;;;;;;2.55;1.60;;;24.50;44.60;;;;;;5015473;28;20052;-66
2023/09/15 02:11:23;;;;;;;1.63;1.23;;;24.60;44.70;;;;;;5015701;28;20405;-66
2023/09/15 02:13:49;;;;;;;3.97;1.58;;;24.50;45.20;;;;;;5015262;28;20096;-67
2023/09/15 02:16:15;;;;;;;2.40;1.70;;;24.50;44.60;;;;;;5012451;28;20409;-65
2023/09/15 02:18:41;;;;;;;2.03;1.52;;;24.60;44.60;;;;;;5017617;28;20056;-67
2023/09/15 02:21:07;;;;;;;2.05;1.40;;;24.50;44.60;;;;;;5032753;28;20049;-66
2023/09/15 02:23:33;;;;;;;1.45;1.35;;;24.50;44.60;;;;;;5032833;28;20029;-66
2023/09/15 02:26:03;;;;;;;2.55;1.70;;;24.50;44.60;;;;;;5032769;28;20052;-66
2023/09/15 02:28:29;;;;;;;2.25;1.65;;;24.50;44.60;;;;;;5032403;28;20033;-65
2023/09/15 02:30:56;;;;;;;3.17;1.45;;;24.50;44.60;;;;;;5032663;28;20048;-65
2023/09/15 02:33:22;;;;;;;2.38;1.63;;;24.50;45.20;;;;;;5023694;28;20048;-67
2023/09/15 02:35:49;;;;;;;2.00;1.50;;;24.50;44.60;;;;;;5013120;28;20022;-67
2023/09/15 02:38:15;;;;;;;2.58;1.77;;;24.50;44.60;;;;;;5014412;28;20033;-65
2023/09/15 02:40:41;;;;;;;2.63;1.55;;;24.50;44.60;;;;;;5030816;28;20030;-65
2023/09/15 02:43:10;;;;;;;1.95;1.25;;;24.40;44.50;;;;;;5014963;28;20108;-66
2023/09/15 02:45:37;;;;;;;1.70;1.40;;;24.50;44.60;;;;;;5014863;28;20093;-68
2023/09/15 02:48:04;;;;;;;2.05;1.60;;;24.50;44.60;;;;;;5006601;28;20049;-67
2023/09/15 02:50:31;;;;;;;2.40;1.48;;;24.40;44.50;;;;;;5034619;28;20025;-66
2023/09/15 02:52:58;;;;;;;2.00;1.35;;;24.40;44.50;;;;;;5034385;28;20025;-66
2023/09/15 02:55:24;;;;;;;4.03;1.70;;;24.40;44.50;;;;;;5017573;28;20045;-67
2023/09/15 02:57:52;;;;;;;2.10;1.45;;;24.40;44.50;;;;;;5014891;28;20355;-66
2023/09/15 03:00:20;;;;;;;2.35;1.50;;;24.40;44.50;;;;;;5032248;28;20078;-67
2023/09/15 03:02:47;;;;;;;2.28;1.40;;;24.40;44.50;;;;;;4996518;28;20038;-66
2023/09/15 03:05:13;;;;;;;2.67;1.40;;;24.40;44.50;;;;;;5014465;28;20060;-63
2023/09/15 03:07:40;;;;;;;3.28;1.50;;;24.40;44.50;;;;;;5019049;28;20087;-63
2023/09/15 03:10:09;;;;;;;2.83;1.63;;;24.40;44.50;;;;;;5028935;28;20113;-64
2023/09/15 03:12:36;;;;;;;2.28;1.38;;;24.40;44.50;;;;;;5027401;28;20025;-64
2023/09/15 03:15:06;;;;;;;3.33;1.70;;;24.40;44.50;;;;;;5011046;28;20026;-65
2023/09/15 03:17:39;;;;;;;1.90;1.20;;;24.40;44.50;;;;;;5013569;28;20017;-66
2023/09/15 03:20:19;;;;;;;2.63;1.40;;;24.40;44.50;;;;;;5015403;28;20085;-65
2023/09/15 03:22:46;;;;;;;2.00;1.40;;;24.40;44.50;;;;;;5014274;28;20037;-66
2023/09/15 03:25:17;;;;;;;3.03;1.60;;;24.40;44.50;;;;;;5014159;28;20403;-64
2023/09/15 03:27:44;;;;;;;2.35;1.42;;;24.40;44.50;;;;;;5013624;28;20029;-66
2023/09/15 03:30:11;;;;;;;2.05;1.40;;;24.30;44.40;;;;;;5014393;28;20330;-64
2023/09/15 03:32:37;;;;;;;2.47;1.58;;;24.30;44.40;;;;;;4998601;28;20041;-64
2023/09/15 03:35:06;;;;;;;1.98;1.30;;;24.30;44.40;;;;;;5017732;28;20435;-64
2023/09/15 03:37:33;;;;;;;2.17;1.38;;;24.40;44.40;;;;;;5034470;28;20032;-64
2023/09/15 03:40:00;;;;;;;2.53;1.30;;;24.30;44.40;;;;;;5019774;28;20041;-64
2023/09/15 03:42:30;;;;;;;1.83;1.38;;;24.30;44.40;;;;;;5014097;28;20059;-65
2023/09/15 03:44:56;;;;;;;2.25;1.30;;;24.30;44.40;;;;;;4997847;28;20029;-64
2023/09/15 03:47:21;;;;;;;3.15;1.50;;;24.30;44.30;;;;;;5012845;28;20048;-66
2023/09/15 03:49:48;;;;;;;2.70;1.50;;;24.30;44.30;;;;;;5013736;28;20082;-65
2023/09/15 03:52:14;;;;;;;2.10;1.45;;;24.30;44.30;;;;;;5013944;28;20043;-66
2023/09/15 03:54:40;;;;;;;1.95;1.27;;;24.30;44.30;;;;;;5031759;28;20418;-64
2023/09/15 03:57:06;;;;;;;2.47;1.33;;;24.30;44.30;;;;;;5046212;28;20162;-64
2023/09/15 03:59:34;;;;;;;1.73;1.17;;;24.30;44.30;;;;;;5010318;28;20025;-64
2023/09/15 04:02:01;;;;;;;2.53;1.70;;;24.30;44.30;;;;;;5018066;28;20075;-65
2023/09/15 04:04:27;;;;;;;2.53;1.40;;;24.30;44.30;;;;;;5047615;28;20104;-65
2023/09/15 04:06:53;;;;;;;2.13;1.30;;;24.30;44.30;;;;;;5033337;28;20479;-64
2023/09/15 04:09:19;;;;;;;3.75;1.60;;;24.30;44.40;;;;;;5043298;28;20041;-65
2023/09/15 04:11:45;;;;;;;2.38;1.27;;;24.20;44.30;;;;;;5031710;28;20026;-63
2023/09/15 04:14:11;;;;;;;1.17;1.08;;;24.30;44.30;;;;;;5014149;28;20044;-65
2023/09/15 04:16:37;;;;;;;2.65;1.35;;;24.30;44.30;;;;;;5015648;28;20433;-64
2023/09/15 04:19:04;;;;;;;1.63;1.23;;;24.20;44.30;;;;;;5016893;28;20056;-65
2023/09/15 04:21:30;;;;;;;2.72;1.20;;;24.30;44.30;;;;;;5017265;28;20057;-64
2023/09/15 04:23:56;;;;;;;2.47;1.33;;;24.30;44.30;;;;;;5017446;28;20460;-65
2023/09/15 04:26:22;;;;;;;2.63;1.50;;;24.20;44.30;;;;;;5050377;28;20025;-64
2023/09/15 04:28:48;;;;;;;2.65;1.00;;;24.20;44.20;;;;;;5035497;28;20435;-64
2023/09/15 04:31:14;;;;;;;2.22;1.50;;;24.20;44.20;;;;;;5016760;28;20056;-64
2023/09/15 04:33:41;;;;;;;2.92;1.55;;;24.20;44.20;;;;;;5022117;28;20122;-65
2023/09/15 04:36:07;;;;;;;2.28;1.10;;;24.20;44.20;;;;;;5036907;28;20052;-64
2023/09/15 04:38:33;;;;;;;2.15;1.25;;;24.20;44.20;;;;;;5051753;28;20057;-67
2023/09/15 04:40:59;;;;;;;2.55;1.50;;;24.20;44.20;;;;;;5033719;28;20029;-67
2023/09/15 04:43:25;;;;;;;3.53;1.30;;;24.20;44.20;;;;;;5000960;28;20103;-66
2023/09/15 04:45:51;;;;;;;2.03;1.40;;;24.20;44.20;;;;;;5016879;28;20025;-64
2023/09/15 04:48:17;;;;;;;1.98;1.40;;;24.20;44.20;;;;;;5048508;28;20465;-64
2023/09/15 04:50:43;;;;;;;1.65;1.23;;;24.20;44.20;;;;;;5034477;28;20099;-64
2023/09/15 04:53:09;;;;;;;2.55;1.30;;;24.20;44.20;;;;;;5054522;28;20112;-64
2023/09/15 04:55:37;;;;;;;2.03;1.25;;;24.20;44.20;;;;;;5028041;28;20088;-64
2023/09/15 04:58:05;;;;;;;3.05;1.30;;;24.20;44.10;;;;;;5011395;28;20508;-64
2023/09/15 05:00:34;;;;;;;2.63;1.40;;;24.20;44.20;;;;;;5014851;28;20044;-64
2023/09/15 05:03:02;;;;;;;1.83;1.20;;;24.20;44.20;;;;;;5021513;28;20105;-64
2023/09/15 05:05:29;;;;;;;1.90;1.27;;;24.20;44.20;;;;;;5014556;28;20043;-63
2023/09/15 05:07:56;;;;;;;2.35;1.30;;;24.20;44.20;;;;;;5030471;28;20761;-64
2023/09/15 05:10:23;;;;;;;2.50;1.40;;;24.10;44.70;;;;;;5014443;28;20029;-64
2023/09/15 05:12:50;;;;;;;3.65;1.30;;;24.10;44.10;;;;;;5014568;28;20117;-64
2023/09/15 05:15:16;;;;;;;2.25;1.70;;;24.10;44.10;;;;;;5014812;28;20112;-67
2023/09/15 05:17:44;;;;;;;1.75;1.27;;;24.10;44.10;;;;;;5016552;28;20400;-65
2023/09/15 05:20:11;;;;;;;2.70;1.60;;;24.10;44.10;;;;;;5017767;28;20029;-66
2023/09/15 05:22:38;;;;;;;2.30;1.30;;;24.10;44.10;;;;;;5016323;28;20055;-65
2023/09/15 05:25:04;;;;;;;2.58;1.35;;;24.10;44.00;;;;;;5015809;28;20063;-65
2023/09/15 05:27:31;;;;;;;1.95;1.25;;;24.10;44.10;;;;;;5015519;28;20465;-65
2023/09/15 05:29:58;;;;;;;2.05;1.27;;;24.10;44.10;;;;;;5016119;28;20048;-65
2023/09/15 05:32:24;;;;;;;2.65;1.17;;;24.10;44.00;;;;;;4996002;28;20026;-65
2023/09/15 05:34:50;;;;;;;1.65;1.10;;;24.10;44.00;;;;;;5011661;28;20117;-66
2023/09/15 05:37:16;;;;;;;2.40;1.58;;;24.10;44.00;;;;;;5014142;28;20061;-64
2023/09/15 05:39:42;;;;;;;2.15;1.70;;;24.10;44.00;;;;;;5013011;28;20140;-64
2023/09/15 05:42:09;;;;;;;1.70;1.10;;;24.10;44.00;;;;;;5023078;28;20037;-65
2023/09/15 05:44:34;;;;;;;2.63;1.27;;;24.10;44.10;;;;;;5028586;28;20087;-65
2023/09/15 05:47:00;;;;;;;2.67;1.30;;;24.10;44.10;;;;;;5014267;28;20051;-64
2023/09/15 05:49:26;;;;;;;1.92;1.23;;;24.10;44.10;;;;;;5032447;28;20150;-65
2023/09/15 05:51:52;;;;;;;2.05;1.30;;;24.10;44.10;;;;;;5053646;28;20056;-64
2023/09/15 05:54:18;;;;;;;1.95;1.30;;;24.10;44.10;;;;;;5053071;28;20033;-64
2023/09/15 05:56:44;;;;;;;2.78;1.33;;;24.10;44.10;;;;;;5053023;28;20052;-65
2023/09/15 05:59:10;;;;;;;1.83;1.23;;;24.10;44.10;;;;;;5028256;28;20035;-65
2023/09/15 06:01:37;;;;;;;2.95;1.45;;;24.10;44.10;;;;;;5053452;28;20037;-65
2023/09/15 06:04:05;;;;;;;2.20;1.33;;;24.10;44.10;;;;;;5048083;28;20091;-66
2023/09/15 06:06:31;;;;;;;3.03;1.80;;;24.10;44.10;;;;;;5016985;28;20033;-63
2023/09/15 06:08:57;;;;;;;1.60;1.13;;;24.10;44.10;;;;;;5028696;28;20065;-63
2023/09/15 06:11:23;;;;;;;1.90;1.33;;;24.10;44.10;;;;;;5030594;28;20463;-64
2023/09/15 06:13:49;;;;;;;2.45;1.17;;;24.10;44.10;;;;;;5032747;28;20025;-63
2023/09/15 06:16:15;;;;;;;3.85;1.67;;;24.10;44.20;;;;;;5029703;28;20440;-64
2023/09/15 06:18:41;;;;;;;1.88;1.38;;;24.10;44.20;;;;;;5031729;28;20029;-65
2023/09/15 06:21:06;;;;;;;3.08;1.65;;;24.10;44.20;;;;;;5005369;28;20154;-66
2023/09/15 06:23:32;;;;;;;1.92;1.35;;;24.10;44.20;;;;;;5031479;28;20029;-65
2023/09/15 06:25:58;;;;;;;2.13;1.30;;;24.10;44.20;;;;;;5015768;28;20060;-64
2023/09/15 06:28:24;;;;;;;2.97;1.70;;;24.10;44.30;;;;;;5030684;28;20105;-66
2023/09/15 06:30:50;;;;;;;1.75;1.48;;;24.10;44.30;;;;;;5029796;28;20394;-67
2023/09/15 06:33:17;;;;;;;2.63;1.73;;;24.10;44.30;;;;;;5029571;28;20029;-65
2023/09/15 06:35:43;;;;;;;3.17;1.85;;;24.10;44.20;;;;;;5008377;28;20040;-64
2023/09/15 06:38:11;;;;;;;2.05;1.55;;;24.10;44.20;;;;;;5037182;28;20036;-65
2023/09/15 06:40:36;;;;;;;3.58;1.80;;;24.10;44.20;;;;;;5043674;28;20124;-64
2023/09/15 06:43:06;;;;;;;2.67;1.88;;;24.00;44.10;;;;;;5033519;28;20111;-65
2023/09/15 06:45:33;;;;;;;3.78;2.03;;;24.00;44.10;;;;;;5023077;28;20314;-65
2023/09/15 06:47:59;;;;;;;4.28;1.90;;;24.00;44.10;;;;;;5007834;28;20153;-67
2023/09/15 06:50:26;;;;;;;5.07;1.98;;;24.00;44.10;;;;;;5006922;28;20029;-66
2023/09/15 06:52:52;;;;;;;5.03;2.28;;;24.00;44.10;;;;;;4991122;28;20308;-66
2023/09/15 06:55:18;;;;;;;3.40;1.67;;;24.00;44.10;;;;;;4994776;28;20078;-66
2023/09/15 06:57:43;;;;;;;3.92;2.00;;;24.00;44.10;;;;;;4994046;28;20041;-63
2023/09/15 07:00:10;;;;;;;3.30;1.95;;;24.00;44.20;;;;;;4989590;28;20125;-64
2023/09/15 07:02:36;;;;;;;3.63;2.28;;;24.00;44.20;;;;;;4993504;28;20034;-62
2023/09/15 07:05:02;;;;;;;5.95;1.85;;;24.00;44.20;;;;;;4995538;28;20042;-65
2023/09/15 07:07:28;;;;;;;2.95;2.10;;;24.00;44.20;;;;;;4991815;28;20474;-66
2023/09/15 07:09:54;;;;;;;3.13;2.00;;;24.00;44.20;;;;;;4993168;28;20348;-65
2023/09/15 07:12:20;;;;;;;4.35;1.90;;;24.00;44.20;;;;;;4999931;28;20030;-64
2023/09/15 07:14:49;;;;;;;3.42;1.98;;;24.00;44.30;;;;;;4998285;28;20385;-65
2023/09/15 07:17:16;;;;;;;4.53;1.73;;;24.00;44.30;;;;;;4991224;28;20106;-64
2023/09/15 07:19:44;;;;;;;3.65;1.77;;;24.00;44.30;;;;;;4988955;28;20121;-66
2023/09/15 07:22:10;;;;;;;3.65;2.03;;;23.90;44.30;;;;;;4991662;28;20042;-67
2023/09/15 07:24:40;;;;;;;3.80;2.03;;;24.00;44.40;;;;;;4987428;28;20357;-66
2023/09/15 07:27:10;;;;;;;3.50;2.20;;;24.00;44.50;;;;;;4990135;28;20110;-66
2023/09/15 07:29:37;;;;;;;4.55;2.63;;;23.90;44.50;;;;;;4989298;28;20034;-65
2023/09/15 07:32:04;;;;;;;3.03;1.80;;;24.00;44.60;;;;;;4992291;28;20031;-65
2023/09/15 07:34:30;;;;;;;3.38;1.92;;;23.90;44.60;;;;;;5004073;28;20045;-65
2023/09/15 07:36:56;;;;;;;3.60;2.08;;;23.90;44.60;;;;;;5012240;28;20033;-65
2023/09/15 07:39:22;;;;;;;3.88;2.40;;;23.90;44.60;;;;;;5011564;28;20117;-67
2023/09/15 07:41:48;;;;;;;4.75;1.98;;;23.90;44.70;;;;;;4986121;28;20049;-66
2023/09/15 07:44:15;;;;;;;3.35;1.63;;;23.90;44.70;;;;;;4989726;28;20422;-66
2023/09/15 07:46:41;;;;;;;3.17;1.80;;;23.90;44.70;;;;;;4986843;28;20471;-66
2023/09/15 07:49:07;;;;;;;3.78;2.10;;;23.90;44.80;;;;;;4994048;28;20062;-67
2023/09/15 07:51:33;;;;;;;2.65;1.73;;;23.90;44.90;;;;;;5013982;28;20093;-66
2023/09/15 07:54:00;;;;;;;4.68;2.10;;;23.90;44.90;;;;;;5015138;28;20037;-67
2023/09/15 07:56:26;;;;;;;3.58;2.08;;;23.90;44.90;;;;;;5007080;28;20108;-65
2023/09/15 07:58:51;;;;;;;3.28;2.00;;;23.90;44.90;;;;;;5015883;28;20187;-66
2023/09/15 08:01:18;;;;;;;2.92;1.98;;;23.90;44.90;;;;;;5008655;28;20034;-67
2023/09/15 08:03:44;;;;;;;3.70;2.05;;;23.90;45.00;;;;;;5014193;28;20421;-66
2023/09/15 08:06:11;;;;;;;3.13;2.00;;;23.90;45.00;;;;;;4986867;28;20092;-66
2023/09/15 08:08:37;;;;;;;4.60;2.00;;;23.90;45.10;;;;;;4997493;28;20042;-65
2023/09/15 08:11:03;;;;;;;3.30;2.00;;;23.90;45.10;;;;;;4996121;28;20039;-67
2023/09/15 08:13:29;;;;;;;2.50;1.75;;;23.90;45.30;;;;;;4995856;28;20038;-65
2023/09/15 08:15:55;;;;;;;3.47;2.13;;;23.90;45.10;;;;;;4994253;28;20034;-65
2023/09/15 08:18:22;;;;;;;3.80;1.90;;;24.00;45.20;;;;;;4990916;28;20033;-66
2023/09/15 08:20:48;;;;;;;3.45;2.30;;;24.00;45.20;;;;;;4993604;28;20042;-65
2023/09/15 08:23:14;;;;;;;3.40;1.90;;;24.00;45.20;;;;;;4993263;28;20108;-65
2023/09/15 08:25:41;;;;;;;4.10;1.92;;;24.00;45.30;;;;;;4992249;28;20126;-67
2023/09/15 08:28:07;;;;;;;2.92;1.80;;;24.00;45.30;;;;;;4991631;28;20381;-67
2023/09/15 08:30:35;;;;;;;2.53;1.50;;;24.00;45.30;;;;;;4993437;28;20033;-66
2023/09/15 08:33:02;;;;;;;2.70;1.80;;;24.00;45.30;;;;;;4993079;28;20120;-67
2023/09/15 08:35:29;;;;;;;2.95;1.80;;;24.00;45.30;;;;;;4992952;28;20078;-66
2023/09/15 08:37:55;;;;;;;3.95;1.80;;;24.00;45.30;;;;;;4993720;28;20045;-66
2023/09/15 08:40:21;;;;;;;3.42;2.10;;;24.00;45.30;;;;;;4989524;28;20049;-64
2023/09/15 08:42:53;;;;;;;2.75;1.80;;;24.00;45.30;;;;;;4992736;28;20430;-66
2023/09/15 08:45:20;;;;;;;3.67;2.08;;;24.00;45.30;;;;;;4992543;28;20065;-66
2023/09/15 08:47:50;;;;;;;2.75;1.70;;;24.00;45.30;;;;;;5004182;28;20059;-64
2023/09/15 08:50:18;;;;;;;2.72;1.83;;;24.00;45.30;;;;;;5027640;28;20053;-64
2023/09/15 08:52:44;;;;;;;3.67;1.90;;;24.00;45.40;;;;;;5030236;28;20095;-59
2023/09/15 08:55:11;;;;;;;2.50;1.55;;;24.00;45.30;;;;;;5031732;28;20955;-64
2023/09/15 08:57:39;;;;;;;2.38;1.67;;;24.00;45.20;;;;;;5027965;28;20034;-66
2023/09/15 09:00:08;;;;;;;4.40;2.25;;;24.00;45.40;;;;;;5030290;28;20041;-65
2023/09/15 09:02:34;;;;;;;2.60;1.90;;;24.00;45.60;;;;;;5029506;28;20048;-64
2023/09/15 09:05:00;;;;;;;3.65;2.13;;;24.00;45.80;;;;;;5030412;28;20029;-65
2023/09/15 09:07:27;;;;;;;3.45;2.10;;;24.00;46.00;;;;;;5033027;28;20026;-65
2023/09/15 09:09:54;;;;;;;4.22;2.30;;;24.00;46.00;;;;;;5032886;28;20104;-65
2023/09/15 09:12:21;;;;;;;3.80;1.92;;;24.10;46.10;;;;;;5014095;28;20132;-66
2023/09/15 09:14:47;;;;;;;2.90;1.70;;;24.10;46.10;;;;;;5030418;28;20069;-66
2023/09/15 09:17:15;;;;;;;2.45;1.70;;;24.10;46.10;;;;;;5031109;28;20446;-62
2023/09/15 09:19:42;;;;;;;2.38;1.70;;;24.10;46.20;;;;;;5030921;28;20420;-66
2023/09/15 09:22:09;;;;;;;3.22;1.70;;;24.10;46.20;;;;;;5033166;28;20318;-64
2023/09/15 09:24:37;;;;;;;3.38;1.90;;;24.10;46.20;;;;;;5019350;28;20207;-66
2023/09/15 09:27:12;;;;;;;3.85;2.03;;;24.10;46.10;;;;;;5034116;28;20053;-66
2023/09/15 09:29:40;;;;;;;3.17;1.80;;;24.10;46.10;;;;;;5034039;28;20033;-65
2023/09/15 09:32:06;;;;;;;4.07;1.67;;;24.10;46.10;;;;;;5032607;28;20064;-65
2023/09/15 09:34:32;;;;;;;3.00;1.80;;;24.10;46.00;;;;;;5002341;28;20148;-65
2023/09/15 09:36:58;;;;;;;3.00;1.50;;;24.10;46.00;;;;;;5028669;28;20075;-65
2023/09/15 09:39:26;;;;;;;2.42;1.73;;;24.20;46.00;;;;;;5046638;28;20025;-64
2023/09/15 09:41:52;;;;;;;2.45;1.75;;;24.20;46.00;;;;;;5046226;28;20048;-64
2023/09/15 09:44:19;;;;;;;4.03;1.73;;;24.10;45.90;;;;;;5046034;28;20344;-64
2023/09/15 09:46:45;;;;;;;2.28;1.40;;;24.20;46.00;;;;;;5045486;28;20037;-65
2023/09/15 09:49:13;;;;;;;1.67;1.20;;;24.20;45.90;;;;;;5006726;28;20102;-64
2023/09/15 09:51:39;;;;;;;2.50;1.40;;;24.20;45.90;;;;;;5022515;28;20033;-65
2023/09/15 09:54:07;;;;;;;2.38;1.50;;;24.20;45.90;;;;;;5027247;28;20025;-66
2023/09/15 09:56:33;;;;;;;3.42;1.52;;;24.20;45.90;;;;;;5026744;28;20033;-66
2023/09/15 09:59:10;;;;;;;2.22;1.35;;;24.20;45.80;;;;;;5026466;28;20048;-64
2023/09/15 10:01:36;;;;;;;2.00;1.45;;;24.20;45.80;;;;;;5023511;28;20049;-65
2023/09/15 10:04:05;;;;;;;2.50;1.60;;;24.20;45.80;;;;;;5026286;28;20022;-64
2023/09/15 10:06:34;;;;;;;3.13;1.40;;;24.20;45.80;;;;;;5024006;28;20049;-64
2023/09/15 10:09:00;;;;;;;2.83;1.40;;;24.20;45.70;;;;;;5018671;28;20025;-65
2023/09/15 10:11:28;;;;;;;2.03;1.40;;;24.20;45.60;;;;;;5019890;28;20425;-64
2023/09/15 10:13:56;;;;;;;2.58;1.45;;;24.20;45.60;;;;;;5018324;28;20046;-65
2023/09/15 10:16:23;;;;;;;2.33;1.42;;;24.30;45.60;;;;;;5014525;28;20175;-66
2023/09/15 10:18:50;;;;;;;2.40;1.40;;;24.30;45.60;;;;;;5001373;28;20021;-65
2023/09/15 10:21:16;;;;;;;2.40;1.30;;;24.30;45.60;;;;;;5023280;28;20038;-66
2023/09/15 10:23:43;;;;;;;1.80;1.30;;;24.30;45.60;;;;;;5024280;28;20101;-65
2023/09/15 10:26:10;;;;;;;2.15;1.30;;;24.30;45.60;;;;;;5017171;28;20133;-68
2023/09/15 10:28:36;;;;;;;2.63;1.70;;;24.30;45.50;;;;;;5009406;28;20104;-63
2023/09/15 10:31:04;;;;;;;2.00;1.20;;;24.30;45.80;;;;;;5012851;28;20203;-63
2023/09/15 10:33:30;;;;;;;22.08;2.40;;;24.40;46.10;;;;;;5009540;28;20029;-54
2023/09/15 10:36:04;;;;;;;2.88;1.48;;;24.40;46.40;;;;;;5014874;28;20045;-56
2023/09/15 10:38:32;;;;;;;4.85;1.80;;;24.50;46.80;;;;;;5009308;28;20464;-60
2023/09/15 10:41:01;;;;;;;3.03;1.95;;;24.60;47.00;;;;;;5012091;28;20303;-62
2023/09/15 10:43:27;;;;;;;3.28;1.60;;;24.60;46.90;;;;;;5008655;28;20077;-56
2023/09/15 10:46:04;;;;;;;1.83;1.30;;;24.60;46.70;;;;;;5010262;28;20038;-52
2023/09/15 10:48:37;;;;;;;3.28;1.35;;;24.70;46.70;;;;;;5026115;28;20065;-53
2023/09/15 10:51:08;;;;;;;2.55;1.55;;;24.70;46.50;;;;;;5028658;28;20029;-56
2023/09/15 10:53:47;;;;;;;2.88;1.30;;;24.70;46.30;;;;;;5031989;28;20029;-58
2023/09/15 10:56:17;;;;;;;3.53;1.48;;;24.70;46.10;;;;;;4992823;28;20033;-52
2023/09/15 10:58:47;;;;;;;2.53;1.13;;;24.80;46.30;;;;;;5027030;28;20025;-55
2023/09/15 11:01:18;;;;;;;2.33;1.40;;;24.80;46.30;;;;;;5007419;28;20049;-53
2023/09/15 11:03:44;;;;;;;1.92;1.27;;;24.80;46.10;;;;;;5012352;28;20088;-54
2023/09/15 11:06:13;;;;;;;3.33;1.45;;;24.80;46.00;;;;;;5027008;28;20110;-52
2023/09/15 11:08:39;;;;;;;2.38;1.40;;;24.80;45.90;;;;;;5027276;28;20480;-55
2023/09/15 11:11:11;;;;;;;2.88;1.65;;;24.80;45.90;;;;;;5013817;28;20032;-56
2023/09/15 11:13:39;;;;;;;2.33;1.40;;;24.80;46.00;;;;;;5026543;28;20048;-56
2023/09/15 11:16:06;;;;;;;2.88;1.60;;;24.90;46.00;;;;;;5025504;28;20048;-58
2023/09/15 11:18:33;;;;;;;2.50;1.35;;;24.90;45.90;;;;;;5030575;28;20447;-54
2023/09/15 11:20:59;;;;;;;6.38;1.60;;;24.80;45.70;;;;;;5032557;28;20033;-50
2023/09/15 11:23:25;;;;;;;2.47;1.33;;;24.80;45.70;;;;;;5029585;28;20033;-52
2023/09/15 11:26:05;;;;;;;3.40;1.55;;;24.80;45.60;;;;;;5000541;28;20282;-52
2023/09/15 11:28:31;;;;;;;2.33;1.40;;;24.80;45.50;;;;;;5034248;28;20405;-53
2023/09/15 11:30:58;;;;;;;2.30;1.25;;;24.80;45.40;;;;;;5029750;28;20041;-49
2023/09/15 11:33:25;;;;;;;1.95;1.40;;;24.80;45.30;;;;;;5026359;28;21185;-52
2023/09/15 11:35:51;;;;;;;2.75;1.73;;;24.80;45.20;;;;;;5028104;28;20053;-53
2023/09/15 11:38:18;;;;;;;3.28;1.13;;;24.80;45.20;;;;;;5030309;28;20030;-51
2023/09/15 11:40:48;;;;;;;1.63;1.20;;;24.80;45.10;;;;;;5030813;28;20370;-50
2023/09/15 11:43:14;;;;;;;3.15;1.30;;;24.80;45.10;;;;;;5029820;28;20045;-46
2023/09/15 11:45:42;;;;;;;1.55;1.25;;;24.90;45.20;;;;;;5028865;28;20030;-55
2023/09/15 11:48:10;;;;;;;2.20;1.20;;;24.90;45.30;;;;;;5029885;28;20041;-51
2023/09/15 11:50:36;;;;;;;2.38;1.42;;;24.90;45.50;;;;;;5033529;28;20420;-58
2023/09/15 11:53:03;;;;;;;3.92;1.27;;;25.00;45.70;;;;;;5032184;28;20163;-47
2023/09/15 11:55:30;;;;;;;2.45;1.30;;;25.00;45.90;;;;;;5029380;28;20037;-50
2023/09/15 11:57:57;;;;;;;6.95;1.40;;;25.00;46.20;;;;;;5030091;28;20041;-51
2023/09/15 12:00:30;;;;;;;4.43;1.65;;;25.10;46.60;;;;;;5033109;28;20047;-56
2023/09/15 12:02:56;;;;;;;2.75;1.50;;;25.10;47.10;;;;;;5027487;28;20057;-60
2023/09/15 12:05:23;;;;;;;3.63;1.13;;;25.10;47.40;;;;;;5025397;28;20029;-58
2023/09/15 12:07:50;;;;;;;3.03;1.30;;;25.20;47.70;;;;;;5030849;28;20031;-58
2023/09/15 12:10:21;;;;;;;5.25;1.33;;;25.20;47.80;;;;;;5032330;28;20040;-53
2023/09/15 12:12:48;;;;;;;2.17;1.23;;;25.20;48.00;;;;;;5025396;28;20032;-53
2023/09/15 12:15:15;;;;;;;3.05;1.60;;;25.30;48.10;;;;;;5031334;28;20116;-52
2023/09/15 12:17:43;;;;;;;3.33;1.60;;;25.30;48.10;;;;;;5027420;28;20034;-46
2023/09/15 12:20:10;;;;;;;2.10;1.20;;;25.30;48.10;;;;;;5035234;28;20029;-55
2023/09/15 12:22:41;;;;;;;3.70;1.42;;;25.30;48.10;;;;;;5028275;28;20061;-53
2023/09/15 12:25:10;;;;;;;2.00;1.25;;;25.30;48.10;;;;;;5028515;28;20108;-53
2023/09/15 12:27:39;;;;;;;1.52;0.88;;;25.30;48.00;;;;;;5032769;28;20035;-51
2023/09/15 12:30:05;;;;;;;2.22;1.10;;;25.30;47.90;;;;;;5034739;28;20048;-56
2023/09/15 12:32:32;;;;;;;2.00;1.15;;;25.40;47.90;;;;;;5027859;28;20074;-55
2023/09/15 12:34:59;;;;;;;2.20;1.23;;;25.50;47.80;;;;;;5034223;28;20025;-52
2023/09/15 12:37:26;;;;;;;2.33;1.10;;;25.50;47.70;;;;;;5034050;28;20033;-54
2023/09/15 12:39:53;;;;;;;2.10;1.10;;;25.60;47.60;;;;;;5040836;28;20035;-53
2023/09/15 12:42:18;;;;;;;2.03;1.27;;;25.60;47.40;;;;;;5023302;28;20077;-52
2023/09/15 12:44:45;;;;;;;2.78;1.08;;;25.70;47.30;;;;;;5043154;28;20041;-47
2023/09/15 12:47:11;;;;;;;1.80;1.20;;;25.70;47.10;;;;;;5033587;28;20145;-52
2023/09/15 12:49:38;;;;;;;1.40;0.90;;;25.80;47.10;;;;;;5034380;28;20045;-47